Time;durP1;ratioP1;P1;durP2;ratioP2;P2;SDS_P1;SDS_P2;PMS_P1;PMS_P2;Temp;Humidity;BMP_temperature;BMP_pressure;BME280_temperature;BME280_humidity;BME280_pressure;Samples;Min_cycle;Max_cycle;Signal;HPM_P1;HPM_P2
2023/08/27 00:02:03;;;;;;;23.87;21.10;;;;;;;16.55;100.00;155613.72;5061266;28;20855;-75
2023/08/27 00:04:30;;;;;;;28.70;24.17;;;;;;;16.58;100.00;155620.22;5045974;28;20478;-75
2023/08/27 00:06:57;;;;;;;35.10;23.13;;;;;;;16.56;100.00;155616.34;5041361;28;20441;-75
2023/08/27 00:09:23;;;;;;;33.23;24.00;;;;;;;16.57;100.00;155618.97;5065515;28;20539;-75
2023/08/27 00:11:51;;;;;;;33.03;22.13;;;;;;;16.53;100.00;155608.53;5032354;28;20497;-75
2023/08/27 00:14:18;;;;;;;26.07;20.87;;;;;;;16.56;100.00;155616.34;5063120;28;20455;-75
2023/08/27 00:16:44;;;;;;;28.67;21.93;;;;;;;16.52;100.00;155605.88;5035801;28;20462;-75
2023/08/27 00:19:11;;;;;;;37.00;21.93;;;;;;;16.49;100.00;155596.78;5056084;28;20570;-75
2023/08/27 00:21:37;;;;;;;24.10;21.30;;;;;;;16.46;100.00;155590.28;5047642;28;20478;-75
2023/08/27 00:24:05;;;;;;;21.60;19.37;;;;;;;16.46;100.00;155590.28;5050357;28;20469;-75
2023/08/27 00:26:31;;;;;;;20.90;18.80;;;;;;;16.55;100.00;155612.47;5049546;28;20563;-75
2023/08/27 00:28:59;;;;;;;25.40;21.47;;;;;;;16.52;100.00;155605.88;5043797;28;20470;-75
2023/08/27 00:31:26;;;;;;;23.33;19.80;;;;;;;16.48;100.00;155595.47;5033249;28;20462;-75
2023/08/27 00:33:53;;;;;;;21.07;18.80;;;;;;;16.47;100.00;155592.88;5045393;28;20447;-75
2023/08/27 00:36:19;;;;;;;22.57;20.13;;;;;;;16.50;100.00;155599.38;5014486;28;20457;-75
2023/08/27 00:38:46;;;;;;;23.60;20.77;;;;;;;16.52;100.00;155604.59;5058748;28;20535;-75
2023/08/27 00:41:13;;;;;;;20.83;18.63;;;;;;;16.51;100.00;155603.28;5053464;28;20563;-75
2023/08/27 00:43:40;;;;;;;19.27;16.40;;;;;;;16.53;100.00;155608.53;5021232;28;20459;-75
2023/08/27 00:46:08;;;;;;;19.00;16.83;;;;;;;16.56;100.00;155616.34;5040057;28;20581;-75
2023/08/27 00:48:35;;;;;;;17.47;15.57;;;;;;;16.55;100.00;155612.47;5012168;28;20887;-75
2023/08/27 00:51:02;;;;;;;18.43;16.40;;;;;;;16.55;100.00;155612.47;5038632;28;20982;-75
2023/08/27 00:53:29;;;;;;;20.37;18.23;;;;;;;16.56;100.00;155616.34;5046048;28;20573;-76
2023/08/27 00:55:55;;;;;;;21.13;18.80;;;;;;;16.58;100.00;155620.22;5033673;28;20459;-76
2023/08/27 00:58:22;;;;;;;19.40;17.40;;;;;;;16.57;100.00;155618.97;5060794;28;20500;-75
2023/08/27 01:00:49;;;;;;;18.47;15.90;;;;;;;16.59;100.00;155624.16;5031033;28;20504;-75
2023/08/27 01:03:17;;;;;;;18.30;16.50;;;;;;;16.59;100.00;155622.84;5023317;28;20459;-75
2023/08/27 01:05:44;;;;;;;16.23;14.50;;;;;;;16.58;100.00;155621.53;5041504;28;20446;-75
2023/08/27 01:08:17;;;;;;;16.00;14.37;;;;;;;16.58;100.00;155621.53;5045838;28;20459;-75
2023/08/27 01:10:54;;;;;;;16.07;14.47;;;;;;;16.57;100.00;155617.66;5046044;28;20438;-75
2023/08/27 01:13:27;;;;;;;15.80;14.10;;;;;;;16.58;100.00;155621.53;5027381;28;20496;-75
2023/08/27 01:15:59;;;;;;;15.77;14.30;;;;;;;16.62;100.00;155631.97;5049078;28;20455;-75
2023/08/27 01:18:27;;;;;;;16.10;14.40;;;;;;;16.63;100.00;155634.53;5043126;28;20440;-75
2023/08/27 01:20:54;;;;;;;16.37;14.77;;;;;;;16.61;100.00;155629.34;5043659;28;20478;-75
2023/08/27 01:23:24;;;;;;;15.23;13.33;;;;;;;16.59;100.00;155624.16;5061297;28;20446;-76
2023/08/27 01:25:52;;;;;;;17.17;15.13;;;;;;;16.60;100.00;155625.47;5046194;28;20454;-76
2023/08/27 01:28:29;;;;;;;20.93;16.53;;;;;;;16.58;100.00;155620.22;5065412;28;20443;-75
2023/08/27 01:31:00;;;;;;;16.70;15.00;;;;;;;16.58;100.00;155621.53;5051173;28;20449;-76
2023/08/27 01:33:27;;;;;;;17.33;15.53;;;;;;;16.58;100.00;155621.53;5019082;28;20514;-76
2023/08/27 01:35:54;;;;;;;18.80;16.80;;;;;;;16.60;100.00;155626.72;5014345;28;20479;-76
2023/08/27 01:38:23;;;;;;;16.07;14.37;;;;;;;16.61;100.00;155629.34;5046688;28;20442;-76
2023/08/27 01:40:49;;;;;;;14.77;13.33;;;;;;;16.61;100.00;155629.34;5038030;28;20501;-75
2023/08/27 01:43:16;;;;;;;17.17;15.43;;;;;;;16.62;100.00;155631.97;5027750;28;20453;-76
2023/08/27 01:45:44;;;;;;;15.67;14.07;;;;;;;16.62;100.00;155630.66;5044002;28;20438;-75
2023/08/27 01:48:10;;;;;;;16.40;14.80;;;;;;;16.61;100.00;155629.34;5065419;28;21585;-76
2023/08/27 01:50:37;;;;;;;17.50;15.00;;;;;;;16.58;100.00;155621.53;5058642;28;20826;-76
2023/08/27 01:53:04;;;;;;;13.93;12.50;;;;;;;16.63;100.00;155633.22;5041308;28;20479;-77
2023/08/27 01:55:31;;;;;;;17.60;15.70;;;;;;;16.62;100.00;155630.66;5040939;28;20467;-76
2023/08/27 01:57:59;;;;;;;18.00;15.40;;;;;;;16.65;100.00;155639.78;5018193;28;21053;-76
2023/08/27 02:00:26;;;;;;;15.10;13.50;;;;;;;16.65;100.00;155639.78;5021077;28;20498;-76
2023/08/27 02:02:52;;;;;;;17.07;15.27;;;;;;;16.65;100.00;155639.78;5032945;28;20505;-76
2023/08/27 02:05:19;;;;;;;15.73;14.13;;;;;;;16.65;100.00;155639.78;5031154;28;20464;-76
2023/08/27 02:07:45;;;;;;;16.83;14.93;;;;;;;16.63;100.00;155634.53;5043064;28;20468;-76
2023/08/27 02:10:12;;;;;;;15.07;13.47;;;;;;;16.63;100.00;155633.22;5037239;28;20452;-76
2023/08/27 02:12:42;;;;;;;16.00;13.90;;;;;;;16.63;100.00;155633.22;5034872;28;20478;-76
2023/08/27 02:15:09;;;;;;;17.00;14.33;;;;;;;16.63;100.00;155633.22;5031354;28;20459;-75
2023/08/27 02:17:36;;;;;;;16.27;14.57;;;;;;;16.65;100.00;155638.47;5040456;28;20455;-76
2023/08/27 02:20:06;;;;;;;19.30;15.70;;;;;;;16.64;100.00;155635.84;5011034;28;20487;-76
2023/08/27 02:22:34;;;;;;;16.80;14.93;;;;;;;16.64;100.00;155637.16;5036762;28;20915;-76
2023/08/27 02:25:00;;;;;;;17.80;16.00;;;;;;;16.64;100.00;155635.84;5032112;28;20463;-76
2023/08/27 02:27:27;;;;;;;16.90;15.20;;;;;;;16.64;100.00;155637.16;5022303;28;20448;-76
2023/08/27 02:29:54;;;;;;;17.60;13.83;;;;;;;16.64;100.00;155635.84;5026002;28;20474;-75
2023/08/27 02:32:21;;;;;;;15.70;13.97;;;;;;;16.68;100.00;155647.53;5048206;28;20906;-76
2023/08/27 02:34:48;;;;;;;17.73;15.37;;;;;;;16.69;100.00;155648.84;5054261;28;20552;-76
2023/08/27 02:37:15;;;;;;;18.50;15.67;;;;;;;16.67;100.00;155644.97;5029388;28;20519;-76
2023/08/27 02:39:42;;;;;;;18.33;14.93;;;;;;;16.66;100.00;155641.03;5051612;28;20458;-76
2023/08/27 02:42:08;;;;;;;17.17;14.90;;;;;;;16.65;100.00;155638.47;5034067;28;20475;-76
2023/08/27 02:44:35;;;;;;;16.60;14.83;;;;;;;16.64;100.00;155637.16;5027328;28;20469;-76
2023/08/27 02:47:03;;;;;;;14.43;13.00;;;;;;;16.62;100.00;155631.97;5044698;28;20462;-76
2023/08/27 02:49:30;;;;;;;16.10;14.40;;;;;;;16.61;100.00;155629.34;5024702;28;20457;-75
2023/08/27 02:51:56;;;;;;;18.23;16.33;;;;;;;16.65;100.00;155638.47;5047449;28;20455;-76
2023/08/27 02:54:23;;;;;;;16.40;14.50;;;;;;;16.65;100.00;155638.47;5011651;28;20988;-76
2023/08/27 02:56:50;;;;;;;19.50;15.50;;;;;;;16.65;100.00;155639.78;5001732;28;20463;-76
2023/08/27 02:59:16;;;;;;;16.67;14.60;;;;;;;16.65;100.00;155639.78;5047268;28;20452;-76
2023/08/27 03:01:43;;;;;;;18.20;16.30;;;;;;;16.62;100.00;155631.97;5035170;28;20484;-76
2023/08/27 03:04:11;;;;;;;16.07;14.10;;;;;;;16.62;100.00;155630.66;5036592;28;20457;-76
2023/08/27 03:06:37;;;;;;;15.87;13.77;;;;;;;16.60;100.00;155625.47;5062892;28;20947;-76
2023/08/27 03:09:04;;;;;;;18.57;16.00;;;;;;;16.58;100.00;155621.53;5050384;28;20442;-76
2023/08/27 03:11:30;;;;;;;16.70;14.87;;;;;;;16.59;100.00;155624.16;5065204;28;20450;-76
2023/08/27 03:13:58;;;;;;;18.00;16.13;;;;;;;16.61;100.00;155628.03;5028337;28;20530;-76
2023/08/27 03:16:24;;;;;;;20.30;15.97;;;;;;;16.62;100.00;155631.97;5023572;28;20454;-75
2023/08/27 03:18:51;;;;;;;20.70;16.60;;;;;;;16.62;100.00;155630.66;5020251;28;21042;-76
2023/08/27 03:21:21;;;;;;;20.17;16.67;;;;;;;16.61;100.00;155629.34;5043450;28;20500;-76
2023/08/27 03:23:47;;;;;;;20.70;17.47;;;;;;;16.61;100.00;155629.34;5048031;28;20548;-76
2023/08/27 03:26:14;;;;;;;18.50;16.50;;;;;;;16.59;100.00;155624.16;5050021;28;20441;-76
2023/08/27 03:28:41;;;;;;;16.53;14.37;;;;;;;16.58;100.00;155621.53;5029753;28;20892;-76
2023/08/27 03:31:08;;;;;;;17.10;15.30;;;;;;;16.56;100.00;155616.34;5020596;28;20454;-76
2023/08/27 03:33:36;;;;;;;18.17;15.37;;;;;;;16.55;100.00;155612.47;5014298;28;20853;-76
2023/08/27 03:36:04;;;;;;;21.10;14.30;;;;;;;16.55;100.00;155613.72;5050605;28;20457;-76
2023/08/27 03:38:32;;;;;;;13.27;11.37;;;;;;;16.57;100.00;155617.66;5048565;28;20439;-75
2023/08/27 03:40:59;;;;;;;15.00;13.43;;;;;;;16.55;100.00;155613.72;5049155;28;21077;-75
2023/08/27 03:43:27;;;;;;;14.23;12.73;;;;;;;16.55;100.00;155612.47;5048023;28;20465;-76
2023/08/27 03:45:54;;;;;;;16.03;13.07;;;;;;;16.51;100.00;155603.28;5019729;28;20455;-75
2023/08/27 03:48:21;;;;;;;12.57;11.27;;;;;;;16.51;100.00;155603.28;5042788;28;20475;-76
2023/08/27 03:50:48;;;;;;;14.57;12.37;;;;;;;16.49;100.00;155596.78;5027800;28;21113;-76
2023/08/27 03:53:14;;;;;;;12.70;11.20;;;;;;;16.50;100.00;155600.66;5065464;28;20470;-75
2023/08/27 03:55:43;;;;;;;12.07;10.90;;;;;;;16.50;100.00;155600.66;5022542;28;20496;-76
2023/08/27 03:58:11;;;;;;;12.27;11.07;;;;;;;16.53;100.00;155608.53;5019536;28;20436;-75
2023/08/27 04:00:38;;;;;;;13.30;11.17;;;;;;;16.51;100.00;155603.28;5013515;28;20460;-75
2023/08/27 04:03:06;;;;;;;13.73;12.33;;;;;;;16.52;100.00;155604.59;5027508;28;20443;-75
2023/08/27 04:05:33;;;;;;;13.70;12.33;;;;;;;16.50;100.00;155599.38;5049402;28;20466;-75
2023/08/27 04:07:59;;;;;;;11.60;10.40;;;;;;;16.47;100.00;155592.88;5032001;28;20447;-75
2023/08/27 04:10:26;;;;;;;11.43;10.23;;;;;;;16.45;100.00;155587.66;5021991;28;20901;-75
2023/08/27 04:12:55;;;;;;;10.60;9.50;;;;;;;16.44;100.00;155586.38;5030928;28;20494;-75
2023/08/27 04:15:22;;;;;;;10.47;9.37;;;;;;;16.46;100.00;155590.28;4997675;28;20455;-75
2023/08/27 04:17:48;;;;;;;11.80;10.07;;;;;;;16.44;100.00;155586.38;5026685;28;20444;-76
2023/08/27 04:20:15;;;;;;;9.50;8.50;;;;;;;16.45;100.00;155587.66;5016412;28;20459;-75
2023/08/27 04:22:42;;;;;;;10.43;9.13;;;;;;;16.47;100.00;155591.59;5018300;28;20477;-76
2023/08/27 04:25:09;;;;;;;11.43;10.23;;;;;;;16.45;100.00;155588.97;5030344;28;20462;-83
2023/08/27 04:27:36;;;;;;;11.70;9.33;;;;;;;16.47;100.00;155591.59;5012921;28;20463;-84
2023/08/27 04:30:06;;;;;;;10.73;9.63;;;;;;;16.45;100.00;155587.66;5049031;28;20959;-83
2023/08/27 04:32:33;;;;;;;10.10;9.10;;;;;;;16.45;100.00;155587.66;5056678;28;20454;-84
2023/08/27 04:35:00;;;;;;;9.40;8.50;;;;;;;16.47;100.00;155592.88;5008784;28;20495;-90
2023/08/27 04:37:26;;;;;;;10.97;9.80;;;;;;;16.46;100.00;155590.28;5012687;28;20631;-89
2023/08/27 04:39:53;;;;;;;12.00;10.07;;;;;;;16.47;100.00;155592.88;5014408;28;20461;-89
2023/08/27 04:42:20;;;;;;;10.40;9.30;;;;;;;16.47;100.00;155591.59;5027311;28;20940;-89
2023/08/27 04:44:47;;;;;;;10.80;8.87;;;;;;;16.44;100.00;155585.09;5013373;28;20463;-89
2023/08/27 04:47:16;;;;;;;10.77;9.67;;;;;;;16.46;100.00;155590.28;5031153;28;20443;-89
2023/08/27 04:49:43;;;;;;;12.83;9.43;;;;;;;16.51;100.00;155601.97;5031201;28;20450;-89
2023/08/27 04:52:09;;;;;;;10.83;9.73;;;;;;;16.50;100.00;155599.38;5040478;28;21080;-89
2023/08/27 04:54:36;;;;;;;10.80;9.63;;;;;;;16.49;100.00;155596.78;5046160;28;20455;-90
2023/08/27 04:57:02;;;;;;;8.70;7.80;;;;;;;16.50;100.00;155600.66;5043484;28;20435;-88
2023/08/27 04:59:29;;;;;;;11.30;10.17;;;;;;;16.50;100.00;155600.66;5035626;28;20827;-88
2023/08/27 05:01:59;;;;;;;10.80;9.70;;;;;;;16.50;100.00;155600.66;5013820;28;20475;-88
2023/08/27 05:04:29;;;;;;;12.00;9.97;;;;;;;16.56;100.00;155616.34;5007772;28;20975;-88
2023/08/27 05:06:55;;;;;;;11.73;10.00;;;;;;;16.56;100.00;155616.34;5020187;28;20455;-88
2023/08/27 05:09:22;;;;;;;10.53;9.47;;;;;;;16.55;100.00;155612.47;5021321;28;20896;-88
2023/08/27 05:11:48;;;;;;;10.73;9.63;;;;;;;16.56;100.00;155616.34;5021722;28;20451;-88
2023/08/27 05:14:15;;;;;;;10.27;8.87;;;;;;;16.55;100.00;155612.47;5032839;28;20529;-88
2023/08/27 05:16:42;;;;;;;10.83;8.53;;;;;;;16.56;100.00;155616.34;5069072;28;20455;-88
2023/08/27 05:19:09;;;;;;;10.03;8.17;;;;;;;16.56;100.00;155616.34;5003372;28;20457;-88
2023/08/27 05:21:37;;;;;;;9.10;8.30;;;;;;;16.54;100.00;155611.16;5001486;28;20499;-88
2023/08/27 05:24:04;;;;;;;9.60;8.70;;;;;;;16.54;100.00;155611.16;5033405;28;20467;-90
2023/08/27 05:26:32;;;;;;;8.73;7.70;;;;;;;16.55;100.00;155613.72;5043282;28;20484;-88
2023/08/27 05:28:58;;;;;;;8.17;7.37;;;;;;;16.53;100.00;155608.53;5014918;28;20472;-90
2023/08/27 05:31:25;;;;;;;8.63;7.77;;;;;;;16.55;100.00;155613.72;5048975;28;20450;-90
2023/08/27 05:33:53;;;;;;;7.40;6.60;;;;;;;16.55;100.00;155613.72;5071603;28;20458;-90
2023/08/27 05:36:21;;;;;;;7.63;6.33;;;;;;;16.56;100.00;155615.03;5068926;28;20450;-89
2023/08/27 05:38:49;;;;;;;7.20;6.50;;;;;;;16.59;100.00;155624.16;5019075;28;20497;-89
2023/08/27 05:41:17;;;;;;;7.60;6.80;;;;;;;16.61;100.00;155629.34;5017015;28;20474;-88
2023/08/27 05:43:44;;;;;;;8.87;6.80;;;;;;;16.60;100.00;155626.72;5036949;28;20491;-88
2023/08/27 05:46:11;;;;;;;6.80;6.10;;;;;;;16.60;100.00;155625.47;5034299;28;20928;-90
2023/08/27 05:48:38;;;;;;;7.57;6.80;;;;;;;16.61;100.00;155629.34;5018742;28;20481;-88
2023/08/27 05:51:04;;;;;;;8.13;6.30;;;;;;;16.62;100.00;155631.97;5036305;28;20476;-88
2023/08/27 05:53:31;;;;;;;7.30;6.47;;;;;;;16.64;100.00;155637.16;5051490;28;20558;-88
2023/08/27 05:55:59;;;;;;;6.63;6.03;;;;;;;16.66;100.00;155642.34;5067431;28;20461;-89
2023/08/27 05:58:26;;;;;;;6.70;6.07;;;;;;;16.66;100.00;155642.34;5014322;28;20473;-89
2023/08/27 06:00:53;;;;;;;6.83;6.13;;;;;;;16.65;100.00;155638.47;5005452;28;20446;-90
2023/08/27 06:03:20;;;;;;;7.47;6.53;;;;;;;16.64;100.00;155637.16;5049737;28;20545;-90
2023/08/27 06:05:46;;;;;;;5.83;5.33;;;;;;;16.63;100.00;155633.22;5034123;28;20462;-90
2023/08/27 06:08:13;;;;;;;5.13;4.63;;;;;;;16.63;100.00;155634.53;5067962;28;20454;-89
2023/08/27 06:10:40;;;;;;;5.10;4.60;;;;;;;16.65;100.00;155639.78;5035499;28;20450;-90
2023/08/27 06:13:08;;;;;;;5.20;4.20;;;;;;;16.68;100.00;155647.53;5055809;28;20910;-90
2023/08/27 06:15:35;;;;;;;4.20;3.80;;;;;;;16.68;100.00;155647.53;5063165;28;20462;-89
2023/08/27 06:18:03;;;;;;;4.50;4.10;;;;;;;16.69;100.00;155648.84;5050761;28;20902;-91
2023/08/27 06:20:29;;;;;;;4.30;3.90;;;;;;;16.67;100.00;155644.97;5033980;28;20485;-90
2023/08/27 06:22:56;;;;;;;8.40;3.87;;;;;;;16.67;100.00;155643.66;5053432;28;20480;-90
2023/08/27 06:25:23;;;;;;;4.23;3.73;;;;;;;16.68;100.00;155647.53;5061113;28;20580;-90
2023/08/27 06:27:50;;;;;;;4.13;3.80;;;;;;;16.71;100.00;155655.34;5049604;28;20496;-89
2023/08/27 06:30:17;;;;;;;4.70;3.43;;;;;;;16.74;100.00;155663.16;5034709;28;20454;-90
2023/08/27 06:32:44;;;;;;;3.70;3.40;;;;;;;16.73;100.00;155660.53;5018862;28;20450;-90
2023/08/27 06:35:11;;;;;;;7.43;3.80;;;;;;;16.76;100.00;155667.09;5020939;28;20451;-90
2023/08/27 06:37:38;;;;;;;5.47;4.00;;;;;;;16.80;100.00;155678.78;5038127;28;20491;-90
2023/08/27 06:40:07;;;;;;;3.60;3.30;;;;;;;16.83;100.00;155686.59;5054750;28;20454;-90
2023/08/27 06:42:34;;;;;;;5.63;3.70;;;;;;;16.88;100.00;155699.63;5038400;28;20482;-91
2023/08/27 06:45:00;;;;;;;3.87;3.47;;;;;;;16.90;100.00;155704.81;5065125;28;20465;-91
2023/08/27 06:47:28;;;;;;;4.40;3.77;;;;;;;16.90;100.00;155704.81;5034800;28;20516;-90
2023/08/27 06:49:56;;;;;;;3.80;3.50;;;;;;;16.93;100.00;155711.31;5033254;28;20459;-90
2023/08/27 06:52:22;;;;;;;3.97;3.07;;;;;;;16.93;100.00;155712.63;5008382;28;20958;-90
2023/08/27 06:54:49;;;;;;;3.93;3.53;;;;;;;16.95;100.00;155717.81;5008522;28;20511;-91
2023/08/27 06:57:16;;;;;;;4.60;3.70;;;;;;;16.95;100.00;155717.81;5008511;28;20526;-90
2023/08/27 06:59:43;;;;;;;3.93;3.50;;;;;;;16.97;100.00;155723.00;5023764;28;20459;-91
2023/08/27 07:02:12;;;;;;;5.10;3.70;;;;;;;16.97;100.00;155723.00;5005792;28;20872;-91
2023/08/27 07:04:41;;;;;;;4.10;3.50;;;;;;;16.99;100.00;155728.25;5023402;28;20456;-90
2023/08/27 07:07:08;;;;;;;4.03;3.63;;;;;;;17.00;100.00;155730.81;5038972;28;20989;-89
2023/08/27 07:09:34;;;;;;;4.33;3.57;;;;;;;17.00;100.00;155729.50;5027182;28;20453;-90
2023/08/27 07:12:01;;;;;;;4.37;3.33;;;;;;;16.99;100.00;155726.94;5019207;28;20526;-90
2023/08/27 07:14:27;;;;;;;3.80;3.20;;;;;;;17.00;100.00;155730.81;5052000;28;20459;-90
2023/08/27 07:16:54;;;;;;;5.70;3.80;;;;;;;17.01;100.00;155733.44;5054210;28;20496;-89
2023/08/27 07:19:21;;;;;;;4.60;3.53;;;;;;;17.02;100.00;155734.75;5049978;28;20457;-89
2023/08/27 07:21:49;;;;;;;4.27;3.40;;;;;;;17.03;100.00;155737.31;5036642;28;20466;-90
2023/08/27 07:24:16;;;;;;;5.00;2.87;;;;;;;17.08;100.00;155750.34;5023926;28;20992;-90
2023/08/27 07:26:43;;;;;;;4.47;3.23;;;;;;;17.05;100.00;155742.53;5021500;28;21066;-90
2023/08/27 07:29:10;;;;;;;3.03;2.73;;;;;;;17.07;100.00;155746.44;5051020;28;20461;-90
2023/08/27 07:31:36;;;;;;;3.53;2.90;;;;;;;17.13;100.00;155763.34;5055314;28;20458;-90
2023/08/27 07:34:03;;;;;;;3.90;2.90;;;;;;;17.16;100.00;155771.16;5052936;28;20461;-90
2023/08/27 07:36:30;;;;;;;2.83;2.50;;;;;;;17.18;100.00;155775.09;5018852;28;20443;-90
2023/08/27 07:38:58;;;;;;;3.17;2.70;;;;;;;17.23;100.00;155788.09;5048966;28;20864;-90
2023/08/27 07:41:25;;;;;;;3.30;2.60;;;;;;;17.26;100.00;155795.91;5056424;28;20450;-90
2023/08/27 07:43:51;;;;;;;4.20;3.80;;;;;;;17.26;100.00;155795.91;5021099;28;20518;-90
2023/08/27 07:46:18;;;;;;;3.70;2.37;;;;;;;17.25;100.00;155793.28;5027075;28;21051;-90
2023/08/27 07:48:44;;;;;;;2.77;2.40;;;;;;;17.23;100.00;155789.41;5070051;28;20470;-89
2023/08/27 07:51:11;;;;;;;3.47;2.30;;;;;;;17.26;100.00;155795.91;5037542;28;20912;-90
2023/08/27 07:53:38;;;;;;;3.10;2.40;;;;;;;17.28;100.00;155802.41;5021122;28;20890;-90
2023/08/27 07:56:07;;;;;;;2.77;2.20;;;;;;;17.32;100.00;155812.81;5049327;28;20462;-90
2023/08/27 07:58:33;;;;;;;2.77;2.50;;;;;;;17.35;100.00;155819.31;5008149;28;20459;-90
2023/08/27 08:01:03;;;;;;;3.23;2.27;;;;;;;17.38;100.00;155827.13;5038781;28;20958;-90
2023/08/27 08:03:31;;;;;;;2.93;2.53;;;;;;;17.33;100.00;155814.13;5039515;28;20473;-90
2023/08/27 08:05:58;;;;;;;2.07;1.80;;;;;;;17.31;100.00;155808.91;5039013;28;20458;-90
2023/08/27 08:08:24;;;;;;;2.10;1.90;;;;;;;17.31;100.00;155808.91;5038195;28;20572;-90
2023/08/27 08:10:55;;;;;;;3.30;2.13;;;;;;;17.31;100.00;155808.91;5053772;28;20544;-90
2023/08/27 08:13:23;;;;;;;2.70;1.80;;;;;;;17.29;100.00;155803.72;5022602;28;20439;-90
2023/08/27 08:15:49;;;;;;;3.80;1.93;;;;;;;17.27;100.00;155798.47;5051365;28;20465;-89
2023/08/27 08:18:16;;;;;;;2.50;2.30;;;;;;;17.31;100.00;155808.91;5069544;28;20438;-89
2023/08/27 08:20:43;;;;;;;2.30;1.90;;;;;;;17.31;100.00;155808.91;5069570;28;20454;-90
2023/08/27 08:23:10;;;;;;;2.63;2.40;;;;;;;17.31;100.00;155808.91;5053089;28;20474;-89
2023/08/27 08:25:37;;;;;;;2.47;2.27;;;;;;;17.31;100.00;155810.22;5020013;28;20815;-90
2023/08/27 08:28:04;;;;;;;3.10;2.50;;;;;;;17.33;100.00;155815.44;5067769;28;20446;-88
2023/08/27 08:30:32;;;;;;;2.53;2.07;;;;;;;17.34;100.00;155816.72;5075445;28;20458;-89
2023/08/27 08:32:58;;;;;;;2.73;2.23;;;;;;;17.34;100.00;155818.00;5044656;28;20518;-88
2023/08/27 08:35:26;;;;;;;3.23;2.07;;;;;;;17.33;100.00;155814.13;5068790;28;20461;-89
2023/08/27 08:37:53;;;;;;;2.87;2.20;;;;;;;17.35;100.00;155819.31;5055247;28;20454;-89
2023/08/27 08:40:19;;;;;;;2.13;1.80;;;;;;;17.38;100.00;155827.13;5069658;28;20458;-89
2023/08/27 08:42:53;;;;;;;2.50;1.70;;;;;;;17.38;100.00;155827.13;5065445;28;20511;-89
2023/08/27 08:45:23;;;;;;;2.13;1.57;;;;;;;17.40;100.00;155832.31;5055377;28;20462;-89
2023/08/27 08:47:53;;;;;;;4.00;1.70;;;;;;;17.47;100.00;155851.84;5067092;28;20461;-88
2023/08/27 08:50:22;;;;;;;3.07;2.03;;;;;;;17.46;100.00;155847.94;5051051;28;20454;-89
2023/08/27 08:52:50;;;;;;;2.93;2.10;;;;;;;17.41;100.00;155834.94;5065506;28;21483;-89
2023/08/27 08:55:18;;;;;;;2.10;1.70;;;;;;;17.48;100.00;155853.16;5018803;28;20882;-88
2023/08/27 08:57:46;;;;;;;2.10;1.90;;;;;;;17.58;100.00;155880.53;5036817;28;20977;-90
2023/08/27 09:00:13;;;;;;;2.20;1.70;;;;;;;17.67;100.00;155901.38;5064965;28;20916;-89
2023/08/27 09:02:41;;;;;;;3.27;1.70;;;;;;;17.69;100.00;155907.88;5069619;28;20884;-89
2023/08/27 09:05:10;;;;;;;2.63;1.80;;;;;;;17.70;100.00;155910.50;5035623;28;20952;-88
2023/08/27 09:07:38;;;;;;;2.50;1.80;;;;;;;17.75;100.00;155922.19;5022752;28;20458;-89
2023/08/27 09:10:05;;;;;;;3.50;1.87;;;;;;;17.78;100.00;155930.00;5009427;28;20717;-89
2023/08/27 09:12:32;;;;;;;2.33;2.00;;;;;;;17.76;100.00;155926.13;5020616;28;20461;-89
2023/08/27 09:14:59;;;;;;;2.73;1.97;;;;;;;17.85;100.00;155949.53;5067200;28;20562;-88
2023/08/27 09:17:25;;;;;;;2.60;1.93;;;;;;;17.88;100.00;155957.34;5051751;28;20459;-89
2023/08/27 09:19:52;;;;;;;2.27;2.07;;;;;;;17.89;100.00;155959.97;5066325;28;20795;-89
2023/08/27 09:22:21;;;;;;;3.77;1.80;;;;;;;17.93;100.00;155969.06;5038045;28;20457;-89
2023/08/27 09:24:47;;;;;;;4.30;1.90;;;;;;;17.96;100.00;155978.19;5049533;28;20475;-88
2023/08/27 09:27:14;;;;;;;2.70;2.00;;;;;;;17.96;100.00;155976.88;5018577;28;20575;-88
2023/08/27 09:29:41;;;;;;;2.27;2.03;;;;;;;17.97;100.00;155980.81;5070237;28;20815;-88
2023/08/27 09:32:07;;;;;;;2.40;1.70;;;;;;;18.01;100.00;155991.22;5034615;28;20443;-89
2023/08/27 09:34:38;;;;;;;2.50;1.80;;;;;;;18.01;100.00;155991.22;5035714;28;20462;-88
2023/08/27 09:37:06;;;;;;;2.10;1.63;;;;;;;18.04;100.00;155997.72;5047398;28;20541;-88
2023/08/27 09:39:34;;;;;;;5.07;1.80;;;;;;;18.14;100.00;156025.06;5050150;28;20458;-88
2023/08/27 09:42:00;;;;;;;2.73;2.23;;;;;;;18.24;100.00;156049.84;5034114;28;20451;-88
2023/08/27 09:44:27;;;;;;;2.20;1.90;;;;;;;18.31;100.00;156066.75;5050950;28;20995;-86
2023/08/27 09:46:54;;;;;;;2.77;1.80;;;;;;;18.29;100.00;156061.53;5071610;28;20813;-88
2023/08/27 09:49:24;;;;;;;2.30;1.87;;;;;;;18.40;100.00;156091.47;5051157;28;20853;-87
2023/08/27 09:51:56;;;;;;;2.53;2.00;;;;;;;18.50;100.00;156116.31;5067096;28;20447;-87
2023/08/27 09:54:23;;;;;;;2.03;1.80;;;;;;;18.57;100.00;156134.53;5065112;28;20483;-87
2023/08/27 09:56:59;;;;;;;1.87;1.40;;;;;;;18.61;100.00;156144.97;5017976;28;20983;-87
2023/08/27 09:59:26;;;;;;;2.00;1.67;;;;;;;18.73;100.00;156177.53;5065948;28;20546;-87
2023/08/27 10:01:53;;;;;;;2.83;1.83;;;;;;;18.84;100.00;156206.19;5038024;28;20454;-87
2023/08/27 10:04:21;;;;;;;3.70;1.97;;;;;;;18.94;100.00;156230.94;5050834;28;21976;-87
2023/08/27 10:06:48;;;;;;;3.07;1.73;;;;;;;18.96;100.00;156236.13;5067359;28;20485;-87
2023/08/27 10:09:15;;;;;;;2.60;2.00;;;;;;;18.92;100.00;156225.72;5067053;28;20458;-87
2023/08/27 10:11:43;;;;;;;2.90;1.90;;;;;;;18.94;100.00;156230.94;5055905;28;20446;-87
2023/08/27 10:14:11;;;;;;;2.20;1.50;;;;;;;18.99;100.00;156243.97;5071511;28;20470;-87
2023/08/27 10:16:38;;;;;;;2.30;1.90;;;;;;;19.02;100.00;156250.47;5035713;28;20457;-87
2023/08/27 10:19:05;;;;;;;2.20;1.80;;;;;;;19.01;100.00;156247.91;5065600;28;20970;-86
2023/08/27 10:21:32;;;;;;;2.33;1.87;;;;;;;19.03;100.00;156253.09;5052629;28;20850;-87
2023/08/27 10:23:59;;;;;;;2.23;1.63;;;;;;;19.01;100.00;156249.16;5049064;28;20540;-86
2023/08/27 10:26:25;;;;;;;1.83;1.50;;;;;;;19.02;100.00;156250.47;5037012;28;20445;-87
2023/08/27 10:28:53;;;;;;;2.90;1.70;;;;;;;19.02;100.00;156251.78;5052326;28;20450;-87
2023/08/27 10:31:21;;;;;;;3.20;2.23;;;;;;;19.01;100.00;156249.16;5067186;28;20454;-86
2023/08/27 10:33:47;;;;;;;2.13;1.60;;;;;;;19.01;100.00;156249.16;5033997;28;20652;-86
2023/08/27 10:36:18;;;;;;;1.97;1.77;;;;;;;19.05;100.00;156259.59;5055306;28;20536;-87
2023/08/27 10:38:46;;;;;;;2.03;1.80;;;;;;;19.14;100.00;156281.78;5020573;28;20458;-87
2023/08/27 10:41:16;;;;;;;2.40;2.10;;;;;;;19.21;100.00;156300.00;5005081;28;20454;-87
2023/08/27 10:43:42;;;;;;;2.50;2.07;;;;;;;19.20;100.00;156297.38;5066225;28;20481;-87
2023/08/27 10:46:10;;;;;;;2.30;2.00;;;;;;;19.18;100.00;156292.19;5067390;28;20458;-87
2023/08/27 10:48:39;;;;;;;2.17;1.70;;;;;;;19.26;100.00;156313.03;5063409;28;20482;-87
2023/08/27 10:51:11;;;;;;;2.40;1.67;;;;;;;19.29;100.00;156322.16;5061803;28;20565;-87
2023/08/27 10:53:41;;;;;;;3.43;1.70;;;;;;;19.35;100.00;156337.78;5017738;28;20587;-86
2023/08/27 10:56:29;;;;;;;2.60;1.80;;;;;;;19.37;100.00;156341.72;5068045;28;20823;-85
2023/08/27 10:58:59;;;;;;;2.57;2.00;;;;;;;19.43;100.00;156358.69;5064721;28;20543;-85
2023/08/27 11:01:26;;;;;;;2.60;1.93;;;;;;;19.47;100.00;156366.50;5048959;28;20838;-85
2023/08/27 11:04:01;;;;;;;2.20;1.87;;;;;;;19.49;100.00;156373.03;5069579;28;20478;-85
2023/08/27 11:06:38;;;;;;;2.10;1.70;;;;;;;19.37;100.00;156341.72;5017393;28;21005;-85
2023/08/27 11:09:12;;;;;;;2.20;1.93;;;;;;;19.38;100.00;156345.66;5063496;28;20459;-85
2023/08/27 11:11:40;;;;;;;2.70;2.00;;;;;;;19.47;100.00;156367.81;5071925;28;20449;-85